.
WxDataArchive / Data Records for 2012-09-25
2012-09-24 September 2012 2012-09-26

Data Records for Tuesday, 25 September 2012

Time	Temp	Chill	HIndex	Humid	Dewpt	 Wind 	HiWind	WindDir	Rain 	Barom 
-----	----	-----	------	-----	-----	------	------	-------	-----	----- 
00:00	55.6	55.6	55.6	48	36.2	0	2	248	0.00	29.989 
00:05	55.6	55.6	55.6	48	36.2	0	3	248	0.00	29.989 
00:10	55.6	55.6	55.6	49	36.7	0	1	248	0.00	29.989 
00:15	55.4	55.4	55.4	50	37.1	0	2	248	0.00	29.992 
00:20	55.1	55.1	55.1	50	36.8	0	1	248	0.00	29.992 
00:25	54.8	54.8	54.8	51	37.0	0	2	248	0.00	29.992 
00:30	54.7	54.7	54.7	51	36.9	0	2	248	0.00	29.986 
00:35	54.5	54.5	54.5	52	37.2	0	2	248	0.00	29.986 
00:40	54.4	54.4	54.4	52	37.1	0	1	248	0.00	29.986 
00:45	54.4	54.4	54.4	52	37.1	0	2	248	0.00	29.981 
00:50	54.4	54.4	54.4	53	37.6	0	2	270	0.00	29.981 
00:55	54.5	54.5	54.5	53	37.7	0	1	270	0.00	29.981 
01:00	54.5	54.5	54.5	53	37.7	0	3	270	0.00	29.977 
01:05	54.5	54.5	54.5	53	37.7	0	1	270	0.00	29.977 
01:10	54.4	54.4	54.4	54	38.1	0	1	270	0.00	29.977 
01:15	54.2	54.2	54.2	54	37.9	0	1	270	0.00	29.975 
01:20	54.2	54.2	54.2	54	37.9	0	2	270	0.00	29.975 
01:25	54.4	54.4	54.4	54	38.1	0	2	270	0.00	29.975 
01:30	54.4	54.4	54.4	54	38.1	0	1	270	0.00	29.977 
01:35	54.4	54.4	54.4	55	38.6	0	1	270	0.00	29.977 
01:40	54.2	54.2	54.2	55	38.4	0	2	270	0.00	29.977 
01:45	54.2	54.2	54.2	55	38.4	0	2	270	0.00	29.976 
01:50	54.2	54.2	54.2	55	38.4	0	2	270	0.00	29.976 
01:55	54.2	54.2	54.2	55	38.4	0	2	270	0.00	29.976 
02:00	54.2	54.2	54.2	55	38.4	0	2	248	0.00	29.974 
02:05	54.2	54.2	54.2	55	38.4	0	3	248	0.00	29.974 
02:10	54.2	54.2	54.2	55	38.4	0	2	248	0.00	29.974 
02:15	54.2	54.2	54.2	55	38.4	0	2	248	0.00	29.968 
02:20	54.2	54.2	54.2	55	38.4	0	1	248	0.00	29.968 
02:25	54.1	54.1	54.1	56	38.8	0	2	248	0.00	29.968 
02:30	53.9	53.9	53.9	56	38.6	0	1	248	0.00	29.963 
02:35	53.9	53.9	53.9	57	39.0	0	1	248	0.00	29.963 
02:40	53.8	53.8	53.8	56	38.5	0	2	248	0.00	29.963 
02:45	53.8	53.8	53.8	56	38.5	0	2	248	0.00	29.971 
02:50	53.8	53.8	53.8	56	38.5	0	2	248	0.00	29.971 
02:55	53.8	53.8	53.8	56	38.5	0	1	248	0.00	29.971 
03:00	53.6	53.6	53.6	57	38.7	0	1	248	0.00	29.968 
03:05	53.6	53.6	53.6	57	38.7	0	1	248	0.00	29.968 
03:10	53.6	53.6	53.6	57	38.7	0	1	248	0.00	29.968 
03:15	53.6	53.6	53.6	57	38.7	0	2	248	0.00	29.963 
03:20	53.6	53.6	53.6	57	38.7	0	1	248	0.00	29.963 
03:25	53.6	53.6	53.6	57	38.7	0	1	248	0.00	29.963 
03:30	53.6	53.6	53.6	57	38.7	0	3	248	0.00	29.959 
03:35	53.8	53.8	53.8	57	38.9	0	1	248	0.00	29.959 
03:40	53.9	53.9	53.9	56	38.6	0	3	225	0.00	29.959 
03:45	54.1	54.1	54.1	56	38.8	0	2	225	0.00	29.956 
03:50	54.1	54.1	54.1	56	38.8	0	1	225	0.00	29.956 
03:55	54.1	54.1	54.1	56	38.8	0	2	225	0.00	29.956 
04:00	53.9	53.9	53.9	57	39.0	0	1	225	0.00	29.949 
04:05	53.9	53.9	53.9	57	39.0	0	2	225	0.00	29.949 
04:10	53.9	53.9	53.9	57	39.0	0	1	225	0.00	29.949 
04:15	53.9	53.9	53.9	57	39.0	0	3	225	0.00	29.948 
04:20	53.8	53.8	53.8	58	39.4	0	1	225	0.00	29.948 
04:25	53.6	53.6	53.6	57	38.7	0	2	225	0.00	29.948 
04:30	53.5	53.5	53.5	58	39.1	0	1	225	0.00	29.947 
04:35	53.5	53.5	53.5	58	39.1	0	0	---	0.00	29.947 
04:40	53.3	53.3	53.3	59	39.3	0	1	225	0.00	29.947 
04:45	53.5	53.5	53.5	59	39.5	0	1	225	0.00	29.944 
04:50	53.5	53.5	53.5	58	39.1	0	1	225	0.00	29.944 
04:55	53.5	53.5	53.5	59	39.5	0	1	225	0.00	29.944 
05:00	53.3	53.3	53.3	59	39.3	0	1	225	0.00	29.945 
05:05	53.2	53.2	53.2	59	39.2	0	1	225	0.00	29.945 
05:10	53.2	53.2	53.2	60	39.7	0	1	225	0.00	29.945 
05:15	53.1	53.1	53.1	60	39.6	0	1	225	0.00	29.944 
05:20	53.1	53.1	53.1	60	39.6	0	1	225	0.00	29.944 
05:25	53.2	53.2	53.2	60	39.7	0	3	248	0.00	29.944 
05:30	53.2	53.2	53.2	61	40.1	0	1	248	0.00	29.941 
05:35	53.3	53.3	53.3	60	39.8	0	1	248	0.00	29.941 
05:40	53.3	53.3	53.3	61	40.2	0	1	248	0.00	29.941 
05:45	53.3	53.3	53.3	61	40.2	0	1	248	0.00	29.939 
05:50	53.2	53.2	53.2	61	40.1	0	1	248	0.00	29.939 
05:55	53.2	53.2	53.2	61	40.1	0	0	---	0.00	29.939 
06:00	53.1	53.1	53.1	62	40.4	0	0	---	0.00	29.929 
06:05	52.8	52.8	52.8	62	40.1	0	1	248	0.00	29.929 
06:10	52.6	52.6	52.6	62	40.0	0	0	---	0.00	29.929 
06:15	52.3	52.3	52.3	63	40.1	0	0	---	0.00	29.929 
06:20	51.9	51.9	51.9	64	40.1	0	0	---	0.00	29.929 
06:25	51.6	51.6	51.6	65	40.2	0	2	248	0.00	29.929 
06:30	51.3	51.3	51.3	65	39.9	0	0	---	0.00	29.920 
06:35	51.1	51.1	51.1	66	40.1	0	1	248	0.00	29.920 
06:40	50.8	50.8	50.8	67	40.2	0	0	---	0.00	29.920 
06:45	50.7	50.7	50.7	67	40.1	0	0	---	0.00	29.918 
06:50	50.4	50.4	50.4	68	40.2	0	0	---	0.00	29.918 
06:55	50.1	50.1	50.1	69	40.3	0	0	---	0.00	29.918 
07:00	49.9	49.9	49.9	69	40.1	0	0	---	0.00	29.922 
07:05	49.8	49.8	49.8	70	40.4	0	0	---	0.00	29.922 
07:10	49.6	49.6	49.6	70	40.2	0	0	---	0.00	29.922 
07:15	49.4	49.4	49.4	71	40.4	0	0	---	0.00	29.934 
07:20	49.2	49.2	49.2	72	40.6	0	0	---	0.00	29.934 
07:25	49.2	49.2	49.2	72	40.6	0	0	---	0.00	29.934 
07:30	49.1	49.1	49.1	73	40.8	0	0	---	0.00	29.946 
07:35	49.2	49.2	49.2	73	40.9	0	1	248	0.00	29.946 
07:40	49.4	49.4	49.4	74	41.5	0	0	---	0.00	29.946 
07:45	49.8	49.8	49.8	74	41.9	0	0	---	0.00	29.952 
07:50	50.1	50.1	50.1	73	41.8	0	0	---	0.00	29.952 
07:55	50.2	50.2	50.2	73	41.9	0	0	---	0.00	29.952 
08:00	50.4	50.4	50.4	73	42.1	0	0	---	0.00	29.947 
08:05	50.7	50.7	50.7	73	42.4	0	0	---	0.00	29.947 
08:10	51.0	51.0	51.0	73	42.7	0	1	248	0.00	29.947 
08:15	51.3	51.3	51.3	73	42.9	0	0	---	0.00	29.960 
08:20	51.6	51.6	51.6	72	42.9	0	1	248	0.00	29.960 
08:25	52.0	52.0	52.0	71	42.9	0	1	248	0.00	29.960 
08:30	52.5	52.5	52.5	70	43.0	0	1	248	0.00	29.960 
08:35	52.8	52.8	52.8	69	42.9	0	1	248	0.00	29.960 
08:40	53.1	53.1	53.1	69	43.2	0	1	248	0.00	29.960 
08:45	53.3	53.3	53.3	69	43.4	0	1	248	0.00	29.954 
08:50	53.6	53.6	53.6	69	43.7	0	0	---	0.00	29.954 
08:55	53.9	53.9	53.9	69	44.0	0	1	248	0.00	29.954 
09:00	54.2	54.2	54.2	68	43.9	0	1	248	0.00	29.965 
09:05	54.4	54.4	54.4	68	44.1	0	1	248	0.00	29.965 
09:10	54.5	54.5	54.5	68	44.2	0	1	248	0.00	29.965 
09:15	54.8	54.8	54.8	68	44.4	0	1	248	0.00	29.960 
09:20	55.0	55.0	55.0	68	44.6	0	0	---	0.00	29.960 
09:25	55.1	55.1	55.1	68	44.7	0	0	---	0.00	29.960 
09:30	55.4	55.4	55.4	68	45.0	0	0	---	0.00	29.950 
09:35	55.6	55.6	55.6	67	44.8	0	1	248	0.00	29.950 
09:40	55.9	55.9	55.9	67	45.1	0	0	---	0.00	29.950 
09:45	56.0	56.0	56.0	67	45.2	0	0	---	0.00	29.946 
09:50	56.2	56.2	56.2	67	45.4	0	0	---	0.00	29.946 
09:55	56.3	56.3	56.3	67	45.5	0	0	---	0.00	29.946 
10:00	56.6	56.6	56.6	67	45.8	0	1	248	0.00	29.944 
10:05	56.9	56.9	56.9	67	46.1	0	0	---	0.00	29.944 
10:10	57.2	57.2	57.2	67	46.3	0	0	---	0.00	29.944 
10:15	57.5	57.5	57.5	66	46.2	0	0	---	0.00	29.939 
10:20	57.6	57.6	57.6	65	45.9	0	1	248	0.00	29.939 
10:25	57.8	57.8	57.8	66	46.5	0	0	---	0.00	29.939 
10:30	58.0	58.0	58.0	67	47.1	0	1	248	0.00	29.947 
10:35	58.1	58.1	58.1	66	46.8	0	1	248	0.00	29.947 
10:40	58.3	58.3	58.3	67	47.4	0	1	248	0.00	29.947 
10:45	58.6	58.6	58.6	65	46.9	0	1	248	0.00	29.947 
10:50	58.7	58.7	58.7	65	47.0	0	1	248	0.00	29.947 
10:55	59.0	59.0	59.0	65	47.2	0	1	248	0.00	29.947 
11:00	59.3	59.3	59.3	64	47.1	0	1	248	0.00	29.948 
11:05	59.9	59.9	59.9	63	47.3	0	1	248	0.00	29.948 
11:10	60.5	60.5	60.5	64	48.3	0	1	248	0.00	29.948 
11:15	61.3	61.3	61.3	63	48.6	0	3	248	0.00	29.944 
11:20	62.0	62.0	62.0	60	48.0	0	1	248	0.00	29.944 
11:25	62.4	62.4	62.4	59	47.9	0	2	248	0.00	29.944 
11:30	62.7	62.7	62.7	60	48.6	0	2	292	0.00	29.937 
11:35	63.1	63.1	63.1	58	48.1	0	2	248	0.00	29.937 
11:40	63.2	63.2	63.2	58	48.2	0	3	248	0.00	29.937 
11:45	63.2	63.2	63.2	58	48.2	1	3	225	0.00	29.930 
11:50	63.2	63.2	63.2	57	47.7	1	3	315	0.00	29.930 
11:55	63.2	63.2	63.2	57	47.7	0	1	292	0.00	29.930 
12:00	63.2	63.2	63.2	57	47.7	0	2	225	0.00	29.926 
12:05	63.2	63.2	63.2	57	47.7	0	2	225	0.00	29.926 
12:10	63.2	63.2	63.2	57	47.7	1	3	248	0.00	29.926 
12:15	63.1	63.1	63.1	58	48.1	0	2	248	0.00	29.923 
12:20	63.1	63.1	63.1	58	48.1	0	3	248	0.00	29.923 
12:25	63.1	63.1	63.1	59	48.5	0	3	68	0.00	29.923 
12:30	63.2	63.2	63.2	58	48.2	0	2	68	0.00	29.918 
12:35	63.2	63.2	63.2	59	48.6	1	5	90	0.00	29.918 
12:40	63.2	63.2	63.2	59	48.6	1	6	90	0.00	29.918 
12:45	63.2	63.2	63.2	58	48.2	1	3	68	0.00	29.907 
12:50	63.2	63.2	63.2	59	48.6	0	2	90	0.00	29.907 
12:55	63.1	63.1	63.1	59	48.5	0	2	90	0.00	29.907 
13:00	63.1	63.1	63.1	58	48.1	0	2	90	0.00	29.910 
13:05	63.2	63.2	63.2	60	49.1	0	1	90	0.00	29.910 
13:10	63.7	63.7	63.7	60	49.5	0	3	292	0.00	29.910 
13:15	64.3	64.3	64.3	59	49.7	0	2	270	0.00	29.909 
13:20	64.8	64.8	64.8	58	49.7	0	2	270	0.00	29.909 
13:25	65.2	65.2	65.2	58	50.0	0	2	270	0.00	29.909 
13:30	65.3	65.3	65.3	57	49.7	0	3	270	0.00	29.903 
13:35	66.0	66.0	66.0	59	51.3	0	3	270	0.00	29.903 
13:40	66.6	66.6	66.6	57	50.9	1	4	45	0.00	29.903 
13:45	66.8	66.8	66.8	55	50.1	1	4	248	0.00	29.903 
13:50	66.8	66.8	66.8	55	50.1	1	6	248	0.00	29.903 
13:55	66.8	66.8	66.8	56	50.6	1	4	270	0.00	29.903 
14:00	66.9	66.9	66.9	58	51.6	1	6	68	0.00	29.896 
14:05	67.1	67.1	67.1	56	50.9	1	3	68	0.00	29.896 
14:10	66.9	66.9	66.9	57	51.2	1	2	270	0.00	29.896 
14:15	66.8	66.8	66.8	57	51.1	0	3	270	0.00	29.894 
14:20	66.6	66.6	66.6	59	51.8	1	3	270	0.00	29.894 
14:25	66.4	66.4	66.4	59	51.6	1	5	248	0.00	29.894 
14:30	66.4	66.4	66.4	60	52.1	1	4	248	0.00	29.892 
14:35	66.1	66.1	66.1	59	51.3	1	5	270	0.00	29.892 
14:40	65.6	65.6	65.6	61	51.8	1	3	225	0.00	29.892 
14:45	65.2	65.2	65.2	62	51.8	1	3	270	0.00	29.902 
14:50	64.7	64.7	64.7	63	51.8	1	2	270	0.00	29.902 
14:55	64.3	64.3	64.3	65	52.3	0	2	248	0.00	29.902 
15:00	64.0	64.0	64.0	66	52.4	0	2	248	0.00	29.893 
15:05	63.9	63.9	63.9	68	53.1	0	3	248	0.00	29.893 
15:10	63.7	63.7	63.7	69	53.3	0	4	225	0.00	29.893 
15:15	63.4	63.4	63.4	70	53.4	0	2	22	0.00	29.891 
15:20	63.1	63.1	63.1	70	53.2	0	2	292	0.00	29.891 
15:25	62.7	62.7	62.7	72	53.5	0	2	248	0.00	29.891 
15:30	62.6	62.6	62.6	73	53.8	0	4	248	0.00	29.895 
15:35	62.6	62.6	62.6	73	53.8	0	2	248	0.00	29.895 
15:40	62.7	62.7	62.7	75	54.7	0	1	248	0.00	29.895 
15:45	63.1	63.1	63.1	75	55.0	0	5	248	0.00	29.895 
15:50	63.1	63.1	63.1	75	55.0	1	4	315	0.00	29.895 
15:55	63.2	63.2	63.2	76	55.5	1	5	248	0.00	29.895 
16:00	63.2	63.2	63.2	77	55.9	0	3	248	0.00	29.895 
16:05	63.1	63.1	63.1	78	56.1	0	2	248	0.00	29.895 
16:10	63.1	63.1	63.1	79	56.5	0	3	248	0.00	29.895 
16:15	63.1	63.1	63.1	80	56.8	0	4	248	0.00	29.886 
16:20	63.2	63.2	63.2	80	56.9	0	2	248	0.00	29.886 
16:25	63.4	63.4	63.4	81	57.5	0	2	248	0.00	29.886 
16:30	63.4	63.4	63.4	81	57.5	0	4	248	0.00	29.885 
16:35	63.4	63.4	63.4	81	57.5	0	3	292	0.00	29.885 
16:40	63.4	63.4	63.4	82	57.8	0	2	292	0.00	29.885 
16:45	63.4	63.4	63.4	82	57.8	0	2	292	0.00	29.893 
16:50	63.4	63.4	63.4	82	57.8	1	4	248	0.00	29.893 
16:55	63.2	63.2	63.2	82	57.6	0	3	248	0.00	29.893 
17:00	63.2	63.2	63.2	83	57.9	0	1	0	0.00	29.898 
17:05	63.4	63.4	63.4	83	58.1	0	3	225	0.00	29.898 
17:10	63.4	63.4	63.4	83	58.1	0	1	225	0.00	29.898 
17:15	63.5	63.5	63.5	83	58.2	0	1	225	0.00	29.895 
17:20	63.7	63.7	63.7	83	58.4	0	1	225	0.00	29.895 
17:25	63.9	63.9	63.9	83	58.6	0	2	225	0.00	29.895 
17:30	63.9	63.9	63.9	83	58.6	0	2	225	0.00	29.895 
17:35	64.0	64.0	64.0	83	58.7	1	3	225	0.00	29.895 
17:40	64.2	64.2	64.2	83	58.9	0	1	248	0.00	29.895 
17:45	64.2	64.2	64.2	83	58.9	1	3	248	0.00	29.894 
17:50	64.3	64.3	64.3	83	59.0	0	3	248	0.00	29.894 
17:55	64.3	64.3	64.3	83	59.0	0	1	292	0.00	29.894 
18:00	64.5	64.5	64.5	83	59.2	0	2	90	0.00	29.894 
18:05	64.5	64.5	64.5	83	59.2	0	1	90	0.00	29.894 
18:10	64.5	64.5	64.5	83	59.2	0	1	90	0.00	29.894 
18:15	64.7	64.7	64.7	82	59.1	0	4	90	0.00	29.903 
18:20	64.7	64.7	64.7	82	59.1	0	4	248	0.00	29.903 
18:25	64.7	64.7	64.7	81	58.7	1	4	248	0.00	29.903 
18:30	64.7	64.7	64.7	81	58.7	0	2	270	0.00	29.908 
18:35	64.7	64.7	64.7	81	58.7	0	3	270	0.00	29.908 
18:40	64.7	64.7	64.7	81	58.7	0	3	248	0.00	29.908 
18:45	64.7	64.7	64.7	81	58.7	0	2	225	0.00	29.911 
18:50	64.7	64.7	64.7	81	58.7	0	2	225	0.00	29.911 
18:55	64.5	64.5	64.5	81	58.5	0	4	315	0.00	29.911 
19:00	64.5	64.5	64.5	81	58.5	0	2	292	0.00	29.907 
19:05	64.3	64.3	64.3	82	58.7	0	2	248	0.00	29.907 
19:10	64.3	64.3	64.3	82	58.7	1	4	248	0.00	29.907 
19:15	64.2	64.2	64.2	82	58.6	0	2	248	0.00	29.909 
19:20	64.0	64.0	64.0	83	58.7	0	2	248	0.00	29.909 
19:25	64.0	64.0	64.0	83	58.7	0	2	248	0.00	29.909 
19:30	63.9	63.9	63.9	83	58.6	0	1	248	0.00	29.906 
19:35	63.9	63.9	63.9	84	59.0	0	2	248	0.00	29.906 
19:40	63.7	63.7	63.7	84	58.8	0	3	248	0.00	29.906 
19:45	63.7	63.7	63.7	84	58.8	0	3	248	0.00	29.904 
19:50	63.7	63.7	63.7	84	58.8	0	1	248	0.00	29.904 
19:55	63.5	63.5	63.5	85	58.9	0	2	248	0.00	29.904 
20:00	63.5	63.5	63.5	85	58.9	0	3	248	0.00	29.900 
20:05	63.5	63.5	63.5	85	58.9	0	1	248	0.00	29.900 
20:10	63.5	63.5	63.5	85	58.9	0	1	248	0.00	29.900 
20:15	63.4	63.4	63.4	86	59.1	0	1	248	0.00	29.894 
20:20	63.4	63.4	63.4	86	59.1	0	3	315	0.00	29.894 
20:25	63.4	63.4	63.4	86	59.1	0	2	315	0.00	29.894 
20:30	63.4	63.4	63.4	86	59.1	0	2	315	0.00	29.898 
20:35	63.2	63.2	63.2	87	59.3	0	1	315	0.00	29.898 
20:40	63.2	63.2	63.2	87	59.3	0	1	315	0.00	29.898 
20:45	63.2	63.2	63.2	87	59.3	0	1	315	0.00	29.903 
20:50	63.2	63.2	63.2	87	59.3	0	1	315	0.00	29.903 
20:55	63.1	63.1	63.1	87	59.2	0	1	315	0.00	29.903 
21:00	63.1	63.1	63.1	87	59.2	0	1	315	0.00	29.908 
21:05	63.1	63.1	63.1	87	59.2	0	2	315	0.00	29.908 
21:10	62.9	62.9	62.9	88	59.3	0	1	315	0.00	29.908 
21:15	62.9	62.9	62.9	88	59.3	0	1	315	0.00	29.909 
21:20	62.7	62.7	62.7	88	59.1	0	0	---	0.00	29.909 
21:25	62.7	62.7	62.7	88	59.1	0	2	270	0.00	29.909 
21:30	62.6	62.6	62.6	88	59.0	0	1	270	0.00	29.910 
21:35	62.6	62.6	62.6	88	59.0	0	2	248	0.00	29.910 
21:40	62.4	62.4	62.4	88	58.8	0	1	248	0.00	29.910 
21:45	62.4	62.4	62.4	88	58.8	0	1	248	0.00	29.911 
21:50	62.3	62.3	62.3	89	59.0	0	1	248	0.00	29.911 
21:55	62.3	62.3	62.3	89	59.0	0	1	248	0.00	29.911 
22:00	62.1	62.1	62.1	89	58.8	0	4	68	0.00	29.909 
22:05	62.0	62.0	62.0	89	58.7	0	2	68	0.00	29.909 
22:10	62.0	62.0	62.0	89	58.7	0	1	68	0.00	29.909 
22:15	62.0	62.0	62.0	90	59.0	0	0	---	0.00	29.906 
22:20	62.0	62.0	62.0	90	59.0	0	2	270	0.00	29.906 
22:25	62.0	62.0	62.0	90	59.0	0	4	270	0.00	29.906 
22:30	62.1	62.1	62.1	90	59.1	0	1	248	0.00	29.906 
22:35	62.1	62.1	62.1	90	59.1	0	1	248	0.00	29.906 
22:40	62.1	62.1	62.1	90	59.1	0	1	248	0.00	29.906 
22:45	62.1	62.1	62.1	90	59.1	0	1	248	0.00	29.909 
22:50	62.3	62.3	62.3	90	59.3	0	2	248	0.00	29.909 
22:55	62.3	62.3	62.3	90	59.3	0	2	248	0.00	29.909 
23:00	62.3	62.3	62.3	90	59.3	0	1	248	0.00	29.911 
23:05	62.3	62.3	62.3	90	59.3	0	1	248	0.00	29.911 
23:10	62.4	62.4	62.4	90	59.4	0	0	---	0.00	29.911 
23:15	62.4	62.4	62.4	90	59.4	0	1	248	0.00	29.904 
23:20	62.4	62.4	62.4	90	59.4	0	1	248	0.00	29.904 
23:25	62.4	62.4	62.4	90	59.4	0	1	248	0.00	29.904 
23:30	62.6	62.6	62.6	90	59.6	0	0	---	0.00	29.903 
23:35	62.6	62.6	62.6	90	59.6	0	1	248	0.00	29.903 
23:40	62.6	62.6	62.6	90	59.6	0	0	---	0.00	29.903 
23:45	62.4	62.4	62.4	90	59.4	0	0	---	0.00	29.904 
23:50	62.4	62.4	62.4	90	59.4	0	0	---	0.00	29.904 
23:55	62.4	62.4	62.4	91	59.7	0	0	---	0.00	29.904 

CoCoRaHS
IN-AL-39
A2 Web Hosting
Creative Commons License
GoDaddy
search engine by freefind advanced

loaded 2018-11-15 03:47:23 • last modified 2010-11-18 10:43:29
Privacy PolicyDisclaimer
• wx.awcolley.com is powered by PmWiki v.2002016 •
• all content (unless otherwise noted) © 2018 A W Colley